sensor_id;sensor_type;location;lat;lon;timestamp;temperature;humidity
10846;DHT22;5476;51.540;7.186;2023-06-24T00:02:32;21.50;99.90
10846;DHT22;5476;51.540;7.186;2023-06-24T00:05:09;21.40;99.90
10846;DHT22;5476;51.540;7.186;2023-06-24T00:07:43;21.50;99.90
10846;DHT22;5476;51.540;7.186;2023-06-24T00:10:25;21.50;99.90
10846;DHT22;5476;51.540;7.186;2023-06-24T00:13:39;21.40;99.90
10846;DHT22;5476;51.540;7.186;2023-06-24T00:16:28;21.40;99.90
10846;DHT22;5476;51.540;7.186;2023-06-24T00:18:59;21.40;99.90
10846;DHT22;5476;51.540;7.186;2023-06-24T00:21:34;21.40;99.90
10846;DHT22;5476;51.540;7.186;2023-06-24T00:24:12;21.40;99.90
10846;DHT22;5476;51.540;7.186;2023-06-24T00:32:48;21.10;99.90
10846;DHT22;5476;51.540;7.186;2023-06-24T00:35:29;21.10;99.90
10846;DHT22;5476;51.540;7.186;2023-06-24T00:38:11;21.10;99.90
10846;DHT22;5476;51.540;7.186;2023-06-24T00:40:42;21.10;99.90
10846;DHT22;5476;51.540;7.186;2023-06-24T00:45:51;21.00;99.90
10846;DHT22;5476;51.540;7.186;2023-06-24T00:48:27;20.70;99.90
10846;DHT22;5476;51.540;7.186;2023-06-24T00:53:33;20.90;99.90
10846;DHT22;5476;51.540;7.186;2023-06-24T00:56:04;20.80;99.90
10846;DHT22;5476;51.540;7.186;2023-06-24T00:58:50;20.80;99.90
10846;DHT22;5476;51.540;7.186;2023-06-24T01:01:19;20.80;99.90
10846;DHT22;5476;51.540;7.186;2023-06-24T01:04:25;20.80;99.90
10846;DHT22;5476;51.540;7.186;2023-06-24T01:06:59;20.70;99.90
10846;DHT22;5476;51.540;7.186;2023-06-24T01:09:49;20.70;99.90
10846;DHT22;5476;51.540;7.186;2023-06-24T01:12:47;20.60;99.90
10846;DHT22;5476;51.540;7.186;2023-06-24T01:15:57;20.60;99.90
10846;DHT22;5476;51.540;7.186;2023-06-24T01:18:50;20.60;99.90
10846;DHT22;5476;51.540;7.186;2023-06-24T01:22:06;20.60;99.90
10846;DHT22;5476;51.540;7.186;2023-06-24T01:25:21;20.50;99.90
10846;DHT22;5476;51.540;7.186;2023-06-24T01:34:25;20.40;99.90
10846;DHT22;5476;51.540;7.186;2023-06-24T01:37:02;20.30;99.90
10846;DHT22;5476;51.540;7.186;2023-06-24T01:39:42;20.30;99.90
10846;DHT22;5476;51.540;7.186;2023-06-24T01:42:41;20.20;99.90
10846;DHT22;5476;51.540;7.186;2023-06-24T01:45:22;19.30;99.90
10846;DHT22;5476;51.540;7.186;2023-06-24T01:48:05;20.20;99.90
10846;DHT22;5476;51.540;7.186;2023-06-24T01:50:57;20.10;99.90
10846;DHT22;5476;51.540;7.186;2023-06-24T02:05:33;20.10;99.90
10846;DHT22;5476;51.540;7.186;2023-06-24T02:08:42;20.10;99.90
10846;DHT22;5476;51.540;7.186;2023-06-24T02:11:30;20.00;99.90
10846;DHT22;5476;51.540;7.186;2023-06-24T02:14:05;19.90;99.90
10846;DHT22;5476;51.540;7.186;2023-06-24T02:16:38;19.90;99.90
10846;DHT22;5476;51.540;7.186;2023-06-24T02:19:20;19.90;99.90
10846;DHT22;5476;51.540;7.186;2023-06-24T02:21:56;19.90;99.90
10846;DHT22;5476;51.540;7.186;2023-06-24T02:24:28;19.90;99.90
10846;DHT22;5476;51.540;7.186;2023-06-24T02:27:02;19.80;99.90
10846;DHT22;5476;51.540;7.186;2023-06-24T02:29:37;19.80;99.90
10846;DHT22;5476;51.540;7.186;2023-06-24T02:32:12;19.80;99.90
10846;DHT22;5476;51.540;7.186;2023-06-24T02:35:08;19.80;99.90
10846;DHT22;5476;51.540;7.186;2023-06-24T02:37:44;19.80;99.90
10846;DHT22;5476;51.540;7.186;2023-06-24T02:43:25;19.80;99.90
10846;DHT22;5476;51.540;7.186;2023-06-24T02:46:00;19.70;99.90
10846;DHT22;5476;51.540;7.186;2023-06-24T02:48:31;19.50;99.90
10846;DHT22;5476;51.540;7.186;2023-06-24T02:51:10;19.10;99.90
10846;DHT22;5476;51.540;7.186;2023-06-24T02:53:44;19.70;99.90
10846;DHT22;5476;51.540;7.186;2023-06-24T02:56:16;19.60;99.90
10846;DHT22;5476;51.540;7.186;2023-06-24T02:58:48;19.60;99.90
10846;DHT22;5476;51.540;7.186;2023-06-24T03:01:28;19.60;99.90
10846;DHT22;5476;51.540;7.186;2023-06-24T03:04:10;19.60;99.90
10846;DHT22;5476;51.540;7.186;2023-06-24T03:06:48;19.60;99.90
10846;DHT22;5476;51.540;7.186;2023-06-24T03:09:21;19.60;99.90
10846;DHT22;5476;51.540;7.186;2023-06-24T03:14:33;19.50;99.90
10846;DHT22;5476;51.540;7.186;2023-06-24T03:17:07;19.50;99.90
10846;DHT22;5476;51.540;7.186;2023-06-24T03:19:38;19.50;99.90
10846;DHT22;5476;51.540;7.186;2023-06-24T03:22:12;19.50;99.90
10846;DHT22;5476;51.540;7.186;2023-06-24T03:24:46;19.50;99.90
10846;DHT22;5476;51.540;7.186;2023-06-24T03:27:40;19.50;99.90
10846;DHT22;5476;51.540;7.186;2023-06-24T03:30:10;19.50;99.90
10846;DHT22;5476;51.540;7.186;2023-06-24T03:35:16;19.40;99.90
10846;DHT22;5476;51.540;7.186;2023-06-24T03:37:54;19.40;99.90
10846;DHT22;5476;51.540;7.186;2023-06-24T03:40:32;19.30;99.90
10846;DHT22;5476;51.540;7.186;2023-06-24T03:43:13;19.40;99.90
10846;DHT22;5476;51.540;7.186;2023-06-24T03:45:49;19.40;99.90
10846;DHT22;5476;51.540;7.186;2023-06-24T03:48:23;19.40;99.90
10846;DHT22;5476;51.540;7.186;2023-06-24T03:51:07;19.40;99.90
10846;DHT22;5476;51.540;7.186;2023-06-24T03:53:40;19.40;99.90
10846;DHT22;5476;51.540;7.186;2023-06-24T03:56:09;19.40;99.90
10846;DHT22;5476;51.540;7.186;2023-06-24T03:58:40;19.40;99.90
10846;DHT22;5476;51.540;7.186;2023-06-24T04:01:25;19.40;99.90
10846;DHT22;5476;51.540;7.186;2023-06-24T04:04:01;19.40;99.90
10846;DHT22;5476;51.540;7.186;2023-06-24T04:06:40;19.40;99.90
10846;DHT22;5476;51.540;7.186;2023-06-24T04:09:25;19.50;99.90
10846;DHT22;5476;51.540;7.186;2023-06-24T04:12:07;19.50;99.90
10846;DHT22;5476;51.540;7.186;2023-06-24T04:14:41;19.60;99.90
10846;DHT22;5476;51.540;7.186;2023-06-24T04:17:33;19.60;99.90
10846;DHT22;5476;51.540;7.186;2023-06-24T04:20:25;19.60;99.90
10846;DHT22;5476;51.540;7.186;2023-06-24T04:22:58;19.60;99.90
10846;DHT22;5476;51.540;7.186;2023-06-24T04:25:27;19.60;99.90
10846;DHT22;5476;51.540;7.186;2023-06-24T04:28:00;19.60;99.90
10846;DHT22;5476;51.540;7.186;2023-06-24T04:30:29;19.70;99.90
10846;DHT22;5476;51.540;7.186;2023-06-24T04:33:03;19.70;99.90
10846;DHT22;5476;51.540;7.186;2023-06-24T04:35:48;19.70;99.90
10846;DHT22;5476;51.540;7.186;2023-06-24T04:38:29;19.70;99.90
10846;DHT22;5476;51.540;7.186;2023-06-24T04:41:02;19.80;99.90
10846;DHT22;5476;51.540;7.186;2023-06-24T04:43:42;19.80;99.90
10846;DHT22;5476;51.540;7.186;2023-06-24T04:46:18;19.90;99.90
10846;DHT22;5476;51.540;7.186;2023-06-24T04:51:41;19.90;99.90
10846;DHT22;5476;51.540;7.186;2023-06-24T04:54:16;19.90;99.90
10846;DHT22;5476;51.540;7.186;2023-06-24T04:56:48;19.90;99.90
10846;DHT22;5476;51.540;7.186;2023-06-24T04:59:38;19.90;99.90
10846;DHT22;5476;51.540;7.186;2023-06-24T05:02:20;20.00;99.90
10846;DHT22;5476;51.540;7.186;2023-06-24T05:04:48;20.00;99.90
10846;DHT22;5476;51.540;7.186;2023-06-24T05:07:25;20.10;99.90
10846;DHT22;5476;51.540;7.186;2023-06-24T05:10:01;20.20;99.90
10846;DHT22;5476;51.540;7.186;2023-06-24T05:12:29;20.30;99.90
10846;DHT22;5476;51.540;7.186;2023-06-24T05:15:01;20.30;99.90
10846;DHT22;5476;51.540;7.186;2023-06-24T05:17:34;20.30;99.90
10846;DHT22;5476;51.540;7.186;2023-06-24T05:20:08;20.40;99.90
10846;DHT22;5476;51.540;7.186;2023-06-24T05:22:41;20.50;99.90
10846;DHT22;5476;51.540;7.186;2023-06-24T05:25:09;20.60;99.90
10846;DHT22;5476;51.540;7.186;2023-06-24T05:27:40;20.60;99.90
10846;DHT22;5476;51.540;7.186;2023-06-24T05:30:15;20.70;99.90
10846;DHT22;5476;51.540;7.186;2023-06-24T05:32:49;20.70;99.90
10846;DHT22;5476;51.540;7.186;2023-06-24T05:35:20;20.80;99.90
10846;DHT22;5476;51.540;7.186;2023-06-24T05:37:55;20.80;99.90
10846;DHT22;5476;51.540;7.186;2023-06-24T05:40:42;20.80;99.90
10846;DHT22;5476;51.540;7.186;2023-06-24T05:43:21;20.80;99.90
10846;DHT22;5476;51.540;7.186;2023-06-24T05:46:08;20.90;99.90
10846;DHT22;5476;51.540;7.186;2023-06-24T05:48:50;20.80;99.90
10846;DHT22;5476;51.540;7.186;2023-06-24T05:51:32;20.90;99.90
10846;DHT22;5476;51.540;7.186;2023-06-24T05:54:03;20.90;99.90
10846;DHT22;5476;51.540;7.186;2023-06-24T05:56:41;21.00;99.90
10846;DHT22;5476;51.540;7.186;2023-06-24T06:02:30;21.20;99.90
10846;DHT22;5476;51.540;7.186;2023-06-24T06:05:04;21.20;99.90
10846;DHT22;5476;51.540;7.186;2023-06-24T06:07:40;21.30;99.90
10846;DHT22;5476;51.540;7.186;2023-06-24T06:13:33;21.40;99.90
10846;DHT22;5476;51.540;7.186;2023-06-24T06:19:30;21.50;99.90
10846;DHT22;5476;51.540;7.186;2023-06-24T06:22:04;21.60;99.90
10846;DHT22;5476;51.540;7.186;2023-06-24T06:24:40;21.60;99.90
10846;DHT22;5476;51.540;7.186;2023-06-24T06:27:26;21.70;99.90
10846;DHT22;5476;51.540;7.186;2023-06-24T06:30:15;21.80;99.90
10846;DHT22;5476;51.540;7.186;2023-06-24T06:33:22;21.80;99.90
10846;DHT22;5476;51.540;7.186;2023-06-24T06:36:14;21.90;99.90
10846;DHT22;5476;51.540;7.186;2023-06-24T06:38:53;21.80;99.90
10846;DHT22;5476;51.540;7.186;2023-06-24T06:41:34;21.90;99.90
10846;DHT22;5476;51.540;7.186;2023-06-24T06:44:05;21.90;99.90
10846;DHT22;5476;51.540;7.186;2023-06-24T06:46:35;22.00;99.90
10846;DHT22;5476;51.540;7.186;2023-06-24T06:49:03;22.10;99.90
10846;DHT22;5476;51.540;7.186;2023-06-24T06:51:32;22.00;99.90
10846;DHT22;5476;51.540;7.186;2023-06-24T06:54:02;22.10;99.90
10846;DHT22;5476;51.540;7.186;2023-06-24T06:59:02;22.20;99.90
10846;DHT22;5476;51.540;7.186;2023-06-24T07:01:32;22.30;99.90
10846;DHT22;5476;51.540;7.186;2023-06-24T07:04:03;22.40;99.90
10846;DHT22;5476;51.540;7.186;2023-06-24T07:06:37;22.60;99.90
10846;DHT22;5476;51.540;7.186;2023-06-24T07:12:42;22.60;99.90
10846;DHT22;5476;51.540;7.186;2023-06-24T07:15:26;22.60;99.90
10846;DHT22;5476;51.540;7.186;2023-06-24T07:17:54;22.80;99.90
10846;DHT22;5476;51.540;7.186;2023-06-24T07:20:25;22.90;99.90
10846;DHT22;5476;51.540;7.186;2023-06-24T07:22:54;22.90;99.90
10846;DHT22;5476;51.540;7.186;2023-06-24T07:25:25;23.00;99.90
10846;DHT22;5476;51.540;7.186;2023-06-24T07:27:54;23.10;99.90
10846;DHT22;5476;51.540;7.186;2023-06-24T07:30:21;23.20;99.90
10846;DHT22;5476;51.540;7.186;2023-06-24T07:32:48;23.30;99.90
10846;DHT22;5476;51.540;7.186;2023-06-24T07:35:16;23.30;99.90
10846;DHT22;5476;51.540;7.186;2023-06-24T07:37:46;23.30;99.90
10846;DHT22;5476;51.540;7.186;2023-06-24T07:40:15;23.30;99.90
10846;DHT22;5476;51.540;7.186;2023-06-24T07:42:49;23.40;99.90
10846;DHT22;5476;51.540;7.186;2023-06-24T07:47:47;23.40;99.90
10846;DHT22;5476;51.540;7.186;2023-06-24T07:50:14;23.50;99.90
10846;DHT22;5476;51.540;7.186;2023-06-24T07:52:44;23.50;99.90
10846;DHT22;5476;51.540;7.186;2023-06-24T07:55:12;23.70;99.90
10846;DHT22;5476;51.540;7.186;2023-06-24T07:57:46;23.70;99.90
10846;DHT22;5476;51.540;7.186;2023-06-24T08:00:15;23.80;99.90
10846;DHT22;5476;51.540;7.186;2023-06-24T08:05:10;23.80;99.90
10846;DHT22;5476;51.540;7.186;2023-06-24T08:07:38;23.90;99.90
10846;DHT22;5476;51.540;7.186;2023-06-24T08:10:06;24.00;99.90
10846;DHT22;5476;51.540;7.186;2023-06-24T08:12:33;24.20;99.90
10846;DHT22;5476;51.540;7.186;2023-06-24T08:15:03;24.20;99.90
10846;DHT22;5476;51.540;7.186;2023-06-24T08:17:31;24.20;99.90
10846;DHT22;5476;51.540;7.186;2023-06-24T08:19:58;24.20;99.90
10846;DHT22;5476;51.540;7.186;2023-06-24T08:22:25;24.30;99.90
10846;DHT22;5476;51.540;7.186;2023-06-24T08:24:53;24.40;99.90
10846;DHT22;5476;51.540;7.186;2023-06-24T08:27:20;24.50;99.90
10846;DHT22;5476;51.540;7.186;2023-06-24T08:29:47;24.60;99.90
10846;DHT22;5476;51.540;7.186;2023-06-24T08:32:17;24.70;99.90
10846;DHT22;5476;51.540;7.186;2023-06-24T08:34:47;24.70;99.90
10846;DHT22;5476;51.540;7.186;2023-06-24T08:37:14;23.10;99.90
10846;DHT22;5476;51.540;7.186;2023-06-24T08:39:48;24.80;99.90
10846;DHT22;5476;51.540;7.186;2023-06-24T08:42:15;24.90;99.90
10846;DHT22;5476;51.540;7.186;2023-06-24T08:44:43;25.00;99.90
10846;DHT22;5476;51.540;7.186;2023-06-24T08:47:11;25.10;99.90
10846;DHT22;5476;51.540;7.186;2023-06-24T08:49:46;25.10;99.90
10846;DHT22;5476;51.540;7.186;2023-06-24T08:52:15;25.20;99.90
10846;DHT22;5476;51.540;7.186;2023-06-24T08:54:46;24.40;99.90
10846;DHT22;5476;51.540;7.186;2023-06-24T08:57:14;25.40;99.90
10846;DHT22;5476;51.540;7.186;2023-06-24T08:59:43;25.40;99.90
10846;DHT22;5476;51.540;7.186;2023-06-24T09:02:11;25.50;99.90
10846;DHT22;5476;51.540;7.186;2023-06-24T09:04:41;25.60;99.90
10846;DHT22;5476;51.540;7.186;2023-06-24T09:07:09;25.60;99.90
10846;DHT22;5476;51.540;7.186;2023-06-24T09:09:42;25.70;99.90
10846;DHT22;5476;51.540;7.186;2023-06-24T09:12:12;25.70;99.90
10846;DHT22;5476;51.540;7.186;2023-06-24T09:14:41;25.80;99.90
10846;DHT22;5476;51.540;7.186;2023-06-24T09:17:08;25.90;99.90
10846;DHT22;5476;51.540;7.186;2023-06-24T09:19:36;25.90;99.90
10846;DHT22;5476;51.540;7.186;2023-06-24T09:22:06;25.90;99.90
10846;DHT22;5476;51.540;7.186;2023-06-24T09:24:35;26.20;99.90
10846;DHT22;5476;51.540;7.186;2023-06-24T09:27:14;26.30;99.90
10846;DHT22;5476;51.540;7.186;2023-06-24T09:29:43;26.40;99.90
10846;DHT22;5476;51.540;7.186;2023-06-24T09:32:14;26.50;99.90
10846;DHT22;5476;51.540;7.186;2023-06-24T09:34:43;26.60;99.90
10846;DHT22;5476;51.540;7.186;2023-06-24T09:37:21;26.60;99.90
10846;DHT22;5476;51.540;7.186;2023-06-24T09:39:49;26.70;99.90
10846;DHT22;5476;51.540;7.186;2023-06-24T09:42:21;26.70;99.90
10846;DHT22;5476;51.540;7.186;2023-06-24T09:44:53;29.30;99.90
10846;DHT22;5476;51.540;7.186;2023-06-24T09:47:20;26.80;99.90
10846;DHT22;5476;51.540;7.186;2023-06-24T09:49:51;27.00;99.90
10846;DHT22;5476;51.540;7.186;2023-06-24T09:52:20;27.00;98.70
10846;DHT22;5476;51.540;7.186;2023-06-24T09:54:51;27.00;97.30
10846;DHT22;5476;51.540;7.186;2023-06-24T09:57:27;26.90;97.30
10846;DHT22;5476;51.540;7.186;2023-06-24T09:59:58;27.00;96.70
10846;DHT22;5476;51.540;7.186;2023-06-24T10:02:30;27.10;96.10
10846;DHT22;5476;51.540;7.186;2023-06-24T10:05:00;29.20;96.00
10846;DHT22;5476;51.540;7.186;2023-06-24T10:07:30;27.30;94.40
10846;DHT22;5476;51.540;7.186;2023-06-24T10:09:58;27.40;94.50
10846;DHT22;5476;51.540;7.186;2023-06-24T10:12:26;27.50;94.40
10846;DHT22;5476;51.540;7.186;2023-06-24T10:14:54;27.60;93.40
10846;DHT22;5476;51.540;7.186;2023-06-24T10:17:21;27.70;92.20
10846;DHT22;5476;51.540;7.186;2023-06-24T10:19:52;25.90;91.20
10846;DHT22;5476;51.540;7.186;2023-06-24T10:22:22;27.70;86.90
10846;DHT22;5476;51.540;7.186;2023-06-24T10:24:52;27.70;84.40
10846;DHT22;5476;51.540;7.186;2023-06-24T10:27:24;29.50;86.70
10846;DHT22;5476;51.540;7.186;2023-06-24T10:29:56;27.80;82.90
10846;DHT22;5476;51.540;7.186;2023-06-24T10:32:39;25.90;83.50
10846;DHT22;5476;51.540;7.186;2023-06-24T10:35:07;28.10;78.10
10846;DHT22;5476;51.540;7.186;2023-06-24T10:37:54;28.20;82.10
10846;DHT22;5476;51.540;7.186;2023-06-24T10:40:36;28.30;83.80
10846;DHT22;5476;51.540;7.186;2023-06-24T10:43:26;28.30;77.20
10846;DHT22;5476;51.540;7.186;2023-06-24T10:45:56;28.40;76.70
10846;DHT22;5476;51.540;7.186;2023-06-24T10:48:24;28.30;74.90
10846;DHT22;5476;51.540;7.186;2023-06-24T10:50:51;28.40;74.00
10846;DHT22;5476;51.540;7.186;2023-06-24T10:53:18;28.30;73.90
10846;DHT22;5476;51.540;7.186;2023-06-24T10:55:47;28.40;71.40
10846;DHT22;5476;51.540;7.186;2023-06-24T10:58:16;28.30;69.40
10846;DHT22;5476;51.540;7.186;2023-06-24T11:00:44;28.30;69.30
10846;DHT22;5476;51.540;7.186;2023-06-24T11:03:13;28.30;70.80
10846;DHT22;5476;51.540;7.186;2023-06-24T11:05:41;28.40;65.40
10846;DHT22;5476;51.540;7.186;2023-06-24T11:08:09;28.40;64.30
10846;DHT22;5476;51.540;7.186;2023-06-24T11:10:44;28.40;66.10
10846;DHT22;5476;51.540;7.186;2023-06-24T11:13:20;28.60;65.80
10846;DHT22;5476;51.540;7.186;2023-06-24T11:15:47;28.60;64.90
10846;DHT22;5476;51.540;7.186;2023-06-24T11:18:15;28.70;65.50
10846;DHT22;5476;51.540;7.186;2023-06-24T11:20:46;28.80;63.90
10846;DHT22;5476;51.540;7.186;2023-06-24T11:23:16;28.80;63.50
10846;DHT22;5476;51.540;7.186;2023-06-24T11:25:44;28.80;64.70
10846;DHT22;5476;51.540;7.186;2023-06-24T11:28:17;28.90;63.70
10846;DHT22;5476;51.540;7.186;2023-06-24T11:30:44;28.90;62.60
10846;DHT22;5476;51.540;7.186;2023-06-24T11:33:12;28.90;60.40
10846;DHT22;5476;51.540;7.186;2023-06-24T11:35:39;28.90;59.60
10846;DHT22;5476;51.540;7.186;2023-06-24T11:38:06;29.00;59.00
10846;DHT22;5476;51.540;7.186;2023-06-24T11:40:36;29.00;59.60
10846;DHT22;5476;51.540;7.186;2023-06-24T11:43:16;28.20;58.90
10846;DHT22;5476;51.540;7.186;2023-06-24T11:46:01;29.20;61.10
10846;DHT22;5476;51.540;7.186;2023-06-24T11:48:29;29.20;61.10
10846;DHT22;5476;51.540;7.186;2023-06-24T11:50:57;29.30;61.60
10846;DHT22;5476;51.540;7.186;2023-06-24T11:53:29;29.40;61.40
10846;DHT22;5476;51.540;7.186;2023-06-24T11:55:57;29.40;59.80
10846;DHT22;5476;51.540;7.186;2023-06-24T11:58:24;29.40;62.00
10846;DHT22;5476;51.540;7.186;2023-06-24T12:00:53;29.40;61.90
10846;DHT22;5476;51.540;7.186;2023-06-24T12:03:24;29.50;61.60
10846;DHT22;5476;51.540;7.186;2023-06-24T12:05:53;29.50;59.80
10846;DHT22;5476;51.540;7.186;2023-06-24T12:08:20;29.50;59.60
10846;DHT22;5476;51.540;7.186;2023-06-24T12:10:52;29.60;59.80
10846;DHT22;5476;51.540;7.186;2023-06-24T12:13:19;29.70;59.40
10846;DHT22;5476;51.540;7.186;2023-06-24T12:15:46;29.80;59.20
10846;DHT22;5476;51.540;7.186;2023-06-24T12:18:14;29.60;59.40
10846;DHT22;5476;51.540;7.186;2023-06-24T12:20:43;31.10;59.60
10846;DHT22;5476;51.540;7.186;2023-06-24T12:23:10;29.80;59.00
10846;DHT22;5476;51.540;7.186;2023-06-24T12:25:37;29.90;59.20
10846;DHT22;5476;51.540;7.186;2023-06-24T12:28:05;29.70;59.00
10846;DHT22;5476;51.540;7.186;2023-06-24T12:30:32;29.70;59.10
10846;DHT22;5476;51.540;7.186;2023-06-24T12:33:01;29.70;59.60
10846;DHT22;5476;51.540;7.186;2023-06-24T12:35:29;29.80;60.30
10846;DHT22;5476;51.540;7.186;2023-06-24T12:37:58;30.00;59.60
10846;DHT22;5476;51.540;7.186;2023-06-24T12:40:25;30.10;59.10
10846;DHT22;5476;51.540;7.186;2023-06-24T12:42:55;30.20;59.50
10846;DHT22;5476;51.540;7.186;2023-06-24T12:45:23;30.20;58.70
10846;DHT22;5476;51.540;7.186;2023-06-24T12:47:50;30.30;58.60
10846;DHT22;5476;51.540;7.186;2023-06-24T12:50:17;30.60;58.90
10846;DHT22;5476;51.540;7.186;2023-06-24T12:52:47;30.60;57.50
10846;DHT22;5476;51.540;7.186;2023-06-24T12:57:43;30.60;55.20
10846;DHT22;5476;51.540;7.186;2023-06-24T13:00:11;30.50;55.40
10846;DHT22;5476;51.540;7.186;2023-06-24T13:05:07;30.60;54.90
10846;DHT22;5476;51.540;7.186;2023-06-24T13:10:03;31.00;56.10
10846;DHT22;5476;51.540;7.186;2023-06-24T13:12:33;31.00;55.60
10846;DHT22;5476;51.540;7.186;2023-06-24T13:15:00;31.10;54.90
10846;DHT22;5476;51.540;7.186;2023-06-24T13:17:28;31.20;55.10
10846;DHT22;5476;51.540;7.186;2023-06-24T13:22:23;31.30;55.20
10846;DHT22;5476;51.540;7.186;2023-06-24T13:24:51;31.30;55.00
10846;DHT22;5476;51.540;7.186;2023-06-24T13:29:47;31.40;53.60
10846;DHT22;5476;51.540;7.186;2023-06-24T13:32:14;31.40;53.60
10846;DHT22;5476;51.540;7.186;2023-06-24T13:34:42;31.30;54.20
10846;DHT22;5476;51.540;7.186;2023-06-24T13:37:09;31.40;54.50
10846;DHT22;5476;51.540;7.186;2023-06-24T13:39:36;31.50;54.10
10846;DHT22;5476;51.540;7.186;2023-06-24T13:42:04;31.60;54.10
10846;DHT22;5476;51.540;7.186;2023-06-24T13:49:27;31.70;54.00
10846;DHT22;5476;51.540;7.186;2023-06-24T14:06:44;33.10;50.00
10846;DHT22;5476;51.540;7.186;2023-06-24T14:11:40;33.20;50.20
10846;DHT22;5476;51.540;7.186;2023-06-24T14:16:41;33.80;50.60
10846;DHT22;5476;51.540;7.186;2023-06-24T14:19:08;34.00;50.20
10846;DHT22;5476;51.540;7.186;2023-06-24T14:26:32;34.00;50.00
10846;DHT22;5476;51.540;7.186;2023-06-24T14:28:59;34.20;50.20
10846;DHT22;5476;51.540;7.186;2023-06-24T14:31:27;34.40;49.80
10846;DHT22;5476;51.540;7.186;2023-06-24T14:38:50;35.60;50.30
10846;DHT22;5476;51.540;7.186;2023-06-24T14:43:45;34.80;48.60
10846;DHT22;5476;51.540;7.186;2023-06-24T14:51:10;35.10;48.90
10846;DHT22;5476;51.540;7.186;2023-06-24T14:53:37;35.20;49.10
10846;DHT22;5476;51.540;7.186;2023-06-24T14:58:35;35.50;48.70
10846;DHT22;5476;51.540;7.186;2023-06-24T15:01:02;35.50;48.40
10846;DHT22;5476;51.540;7.186;2023-06-24T15:08:24;34.70;46.80
10846;DHT22;5476;51.540;7.186;2023-06-24T15:15:53;34.40;49.10
10846;DHT22;5476;51.540;7.186;2023-06-24T15:18:22;34.40;49.00
10846;DHT22;5476;51.540;7.186;2023-06-24T15:23:17;34.70;48.80
10846;DHT22;5476;51.540;7.186;2023-06-24T15:30:40;35.20;47.90
10846;DHT22;5476;51.540;7.186;2023-06-24T15:33:07;35.10;47.90
10846;DHT22;5476;51.540;7.186;2023-06-24T15:35:35;35.30;48.40
10846;DHT22;5476;51.540;7.186;2023-06-24T15:38:03;35.30;48.20
10846;DHT22;5476;51.540;7.186;2023-06-24T15:40:30;35.40;48.50
10846;DHT22;5476;51.540;7.186;2023-06-24T15:42:59;35.50;48.20
10846;DHT22;5476;51.540;7.186;2023-06-24T15:45:27;35.40;48.20
10846;DHT22;5476;51.540;7.186;2023-06-24T15:47:56;35.40;48.20
10846;DHT22;5476;51.540;7.186;2023-06-24T15:50:23;35.50;48.40
10846;DHT22;5476;51.540;7.186;2023-06-24T15:52:50;35.60;47.90
10846;DHT22;5476;51.540;7.186;2023-06-24T15:55:18;35.70;47.60
10846;DHT22;5476;51.540;7.186;2023-06-24T15:57:46;35.70;48.20
10846;DHT22;5476;51.540;7.186;2023-06-24T16:00:14;35.60;47.40
10846;DHT22;5476;51.540;7.186;2023-06-24T16:02:41;35.60;47.40
10846;DHT22;5476;51.540;7.186;2023-06-24T16:07:38;35.60;47.70
10846;DHT22;5476;51.540;7.186;2023-06-24T16:10:08;35.70;47.30
10846;DHT22;5476;51.540;7.186;2023-06-24T16:15:03;35.60;47.00
10846;DHT22;5476;51.540;7.186;2023-06-24T16:19:58;35.50;47.00
10846;DHT22;5476;51.540;7.186;2023-06-24T16:22:26;35.30;46.80
10846;DHT22;5476;51.540;7.186;2023-06-24T16:24:53;35.00;47.30
10846;DHT22;5476;51.540;7.186;2023-06-24T16:27:21;34.80;46.80
10846;DHT22;5476;51.540;7.186;2023-06-24T16:29:48;34.70;47.00
10846;DHT22;5476;51.540;7.186;2023-06-24T16:32:15;34.80;46.80
10846;DHT22;5476;51.540;7.186;2023-06-24T16:34:43;34.70;46.80
10846;DHT22;5476;51.540;7.186;2023-06-24T16:39:39;34.80;46.60
10846;DHT22;5476;51.540;7.186;2023-06-24T16:42:06;34.90;47.00
10846;DHT22;5476;51.540;7.186;2023-06-24T16:44:34;35.00;47.00
10846;DHT22;5476;51.540;7.186;2023-06-24T16:51:58;34.70;46.40
10846;DHT22;5476;51.540;7.186;2023-06-24T16:54:25;34.70;46.50
10846;DHT22;5476;51.540;7.186;2023-06-24T16:56:54;34.80;46.50
10846;DHT22;5476;51.540;7.186;2023-06-24T16:59:21;34.70;47.20
10846;DHT22;5476;51.540;7.186;2023-06-24T17:09:11;34.00;47.10
10846;DHT22;5476;51.540;7.186;2023-06-24T17:14:07;34.10;46.70
10846;DHT22;5476;51.540;7.186;2023-06-24T17:16:34;34.20;47.10
10846;DHT22;5476;51.540;7.186;2023-06-24T17:19:01;34.20;46.80
10846;DHT22;5476;51.540;7.186;2023-06-24T17:21:29;34.10;47.00
10846;DHT22;5476;51.540;7.186;2023-06-24T17:23:56;34.10;46.90
10846;DHT22;5476;51.540;7.186;2023-06-24T17:26:23;33.80;46.40
10846;DHT22;5476;51.540;7.186;2023-06-24T17:33:47;33.60;47.30
10846;DHT22;5476;51.540;7.186;2023-06-24T17:36:14;33.70;47.40
10846;DHT22;5476;51.540;7.186;2023-06-24T17:41:09;35.00;48.20
10846;DHT22;5476;51.540;7.186;2023-06-24T17:43:36;33.70;47.80
10846;DHT22;5476;51.540;7.186;2023-06-24T17:46:04;33.70;47.40
10846;DHT22;5476;51.540;7.186;2023-06-24T17:51:01;33.70;48.10
10846;DHT22;5476;51.540;7.186;2023-06-24T17:56:00;33.70;48.30
10846;DHT22;5476;51.540;7.186;2023-06-24T18:00:57;33.70;47.80
10846;DHT22;5476;51.540;7.186;2023-06-24T18:03:30;33.60;48.00
10846;DHT22;5476;51.540;7.186;2023-06-24T18:06:02;33.60;47.90
10846;DHT22;5476;51.540;7.186;2023-06-24T18:08:29;33.50;48.30
10846;DHT22;5476;51.540;7.186;2023-06-24T18:13:27;33.40;49.30
10846;DHT22;5476;51.540;7.186;2023-06-24T18:31:20;32.50;50.80
10846;DHT22;5476;51.540;7.186;2023-06-24T18:33:47;32.40;50.90
10846;DHT22;5476;51.540;7.186;2023-06-24T18:41:17;32.10;51.90
10846;DHT22;5476;51.540;7.186;2023-06-24T18:43:44;31.90;52.10
10846;DHT22;5476;51.540;7.186;2023-06-24T18:53:33;31.50;53.40
10846;DHT22;5476;51.540;7.186;2023-06-24T18:56:07;31.40;53.60
10846;DHT22;5476;51.540;7.186;2023-06-24T18:58:38;31.40;53.30
10846;DHT22;5476;51.540;7.186;2023-06-24T19:03:35;31.20;53.60
10846;DHT22;5476;51.540;7.186;2023-06-24T19:06:05;31.10;53.40
10846;DHT22;5476;51.540;7.186;2023-06-24T19:08:32;31.00;53.50
10846;DHT22;5476;51.540;7.186;2023-06-24T19:10:59;31.00;53.90
10846;DHT22;5476;51.540;7.186;2023-06-24T19:13:28;31.00;54.10
10846;DHT22;5476;51.540;7.186;2023-06-24T19:15:59;30.80;54.10
10846;DHT22;5476;51.540;7.186;2023-06-24T19:18:26;30.80;54.60
10846;DHT22;5476;51.540;7.186;2023-06-24T19:20:53;30.70;55.10
10846;DHT22;5476;51.540;7.186;2023-06-24T19:25:50;30.50;55.50
10846;DHT22;5476;51.540;7.186;2023-06-24T19:30:47;30.30;55.90
10846;DHT22;5476;51.540;7.186;2023-06-24T19:33:14;30.20;56.40
10846;DHT22;5476;51.540;7.186;2023-06-24T19:35:41;30.10;56.40
10846;DHT22;5476;51.540;7.186;2023-06-24T19:38:09;29.90;56.30
10846;DHT22;5476;51.540;7.186;2023-06-24T19:43:04;29.70;56.10
10846;DHT22;5476;51.540;7.186;2023-06-24T19:50:27;29.50;57.50
10846;DHT22;5476;51.540;7.186;2023-06-24T19:52:54;29.40;58.20
10846;DHT22;5476;51.540;7.186;2023-06-24T20:05:13;29.00;60.00
10846;DHT22;5476;51.540;7.186;2023-06-24T20:15:04;28.70;61.70
10846;DHT22;5476;51.540;7.186;2023-06-24T20:39:42;27.90;67.40